createdAt,value
2019-01-27T00:00:21.393Z,160.43
2019-01-27T00:02:49.676Z,155.73
2019-01-27T00:05:17.964Z,145.37
2019-01-27T00:07:46.435Z,133.60
2019-01-27T00:10:14.710Z,144.63
2019-01-27T00:12:43.076Z,138.70
2019-01-27T00:15:23.522Z,147.23
2019-01-27T00:17:51.924Z,150.33
2019-01-27T00:20:22.055Z,163.47
2019-01-27T00:22:50.494Z,186.93
2019-01-27T00:25:18.807Z,191.20
2019-01-27T00:27:47.093Z,198.63
2019-01-27T00:30:21.538Z,215.07
2019-01-27T00:32:49.919Z,232.33
2019-01-27T00:35:18.204Z,233.57
2019-01-27T00:37:46.549Z,237.93
2019-01-27T00:40:16.491Z,223.43
2019-01-27T00:42:45.090Z,183.73
2019-01-27T00:45:23.591Z,150.27
2019-01-27T00:47:52.082Z,132.03
2019-01-27T00:50:20.450Z,116.57
2019-01-27T00:52:48.818Z,105.37
2019-01-27T00:55:22.400Z,99.80
2019-01-27T00:57:50.767Z,112.03
2019-01-27T01:00:21.904Z,98.50
2019-01-27T01:02:50.531Z,101.50
2019-01-27T01:05:18.969Z,88.87
2019-01-27T01:07:47.353Z,101.53
2019-01-27T01:10:20.633Z,84.63
2019-01-27T01:12:48.926Z,78.03
2019-01-27T01:15:28.644Z,79.57
2019-01-27T01:17:57.001Z,78.97
2019-01-27T01:20:25.367Z,68.90
2019-01-27T01:22:53.680Z,61.97
2019-01-27T01:25:25.838Z,62.00
2019-01-27T01:27:54.137Z,58.60
2019-01-27T01:30:31.268Z,44.30
2019-01-27T01:32:59.652Z,65.20
2019-01-27T01:35:28.191Z,58.87
2019-01-27T01:37:56.572Z,57.27
2019-01-27T01:40:24.865Z,48.60
2019-01-27T01:42:53.218Z,55.03
2019-01-27T01:45:31.726Z,55.83
2019-01-27T01:48:00.026Z,57.83
2019-01-27T01:50:28.301Z,57.23
2019-01-27T01:52:56.617Z,65.37
2019-01-27T01:55:24.905Z,64.37
2019-01-27T01:57:53.288Z,64.30
2019-01-27T02:00:23.929Z,63.93
2019-01-27T02:02:54.425Z,62.87
2019-01-27T02:05:22.799Z,67.03
2019-01-27T02:07:51.107Z,62.33
2019-01-27T02:10:21.899Z,60.33
2019-01-27T02:12:50.765Z,61.13
2019-01-27T02:15:40.517Z,61.13
2019-01-27T02:18:08.805Z,57.10
2019-01-27T02:20:37.093Z,67.73
2019-01-27T02:23:05.399Z,64.93
2019-01-27T02:25:33.680Z,61.07
2019-01-27T02:28:03.653Z,63.33
2019-01-27T02:30:33.123Z,58.10
2019-01-27T02:33:01.503Z,54.60
2019-01-27T02:35:29.789Z,55.00
2019-01-27T02:37:58.123Z,57.37
2019-01-27T02:40:26.408Z,56.40
2019-01-27T02:42:54.739Z,51.60
2019-01-27T02:45:23.141Z,53.80
2019-01-27T02:47:51.490Z,51.57
2019-01-27T02:50:20.693Z,51.90
2019-01-27T02:52:49.009Z,54.70
2019-01-27T02:55:17.291Z,55.23
2019-01-27T02:57:45.565Z,51.73
2019-01-27T03:00:16.392Z,46.67
2019-01-27T03:02:44.742Z,48.40
2019-01-27T03:05:14.933Z,45.43
2019-01-27T03:07:43.260Z,46.43
2019-01-27T03:10:16.580Z,43.70
2019-01-27T03:12:44.880Z,44.77
2019-01-27T03:15:13.860Z,45.13
2019-01-27T03:17:42.216Z,46.07
2019-01-27T03:20:11.932Z,48.03
2019-01-27T03:22:40.384Z,45.63
2019-01-27T03:25:16.410Z,45.60
2019-01-27T03:27:44.706Z,46.07
2019-01-27T03:30:16.290Z,49.13
2019-01-27T03:32:44.549Z,46.37
2019-01-27T03:35:12.959Z,45.03
2019-01-27T03:37:41.337Z,45.83
2019-01-27T03:40:12.427Z,45.70
2019-01-27T03:42:40.748Z,42.07
2019-01-27T03:45:15.012Z,44.07
2019-01-27T03:47:43.293Z,42.87
2019-01-27T03:50:19.142Z,42.57
2019-01-27T03:52:47.424Z,43.50
2019-01-27T03:55:24.773Z,40.20
2019-01-27T03:57:53.140Z,39.63
2019-01-27T04:00:22.773Z,38.90
2019-01-27T04:02:51.080Z,39.23
2019-01-27T04:05:19.353Z,36.17
2019-01-27T04:07:47.648Z,35.60
2019-01-27T04:10:24.447Z,35.20
2019-01-27T04:12:52.854Z,35.70
2019-01-27T04:15:21.146Z,34.40
2019-01-27T04:17:49.470Z,35.33
2019-01-27T04:20:19.778Z,35.40
2019-01-27T04:22:48.050Z,35.87
2019-01-27T04:25:16.428Z,36.87
2019-01-27T04:27:44.770Z,36.03
2019-01-27T04:30:23.239Z,34.43
2019-01-27T04:32:51.514Z,32.20
2019-01-27T04:35:19.795Z,33.70
2019-01-27T04:37:48.183Z,34.17
2019-01-27T04:40:18.796Z,32.87
2019-01-27T04:42:47.089Z,32.70
2019-01-27T04:45:17.857Z,39.80
2019-01-27T04:47:46.151Z,36.20
2019-01-27T04:50:14.923Z,30.33
2019-01-27T04:52:43.273Z,33.73
2019-01-27T04:55:16.738Z,31.13
2019-01-27T04:57:45.009Z,31.37
2019-01-27T05:00:27.254Z,30.40
2019-01-27T05:02:59.957Z,28.90
2019-01-27T05:05:28.240Z,28.83
2019-01-27T05:07:56.540Z,30.60
2019-01-27T05:10:24.826Z,30.83
2019-01-27T05:12:53.089Z,30.37
2019-01-27T05:15:30.332Z,30.00
2019-01-27T05:17:58.611Z,31.10
2019-01-27T05:20:26.901Z,30.67
2019-01-27T05:22:55.185Z,30.87
2019-01-27T05:25:23.540Z,30.43
2019-01-27T05:27:51.874Z,31.30
2019-01-27T05:30:22.470Z,30.53
2019-01-27T05:32:50.743Z,30.67
2019-01-27T05:35:19.019Z,30.10
2019-01-27T05:37:47.323Z,27.97
2019-01-27T05:40:20.657Z,31.00
2019-01-27T05:42:48.935Z,29.53
2019-01-27T05:45:18.790Z,30.67
2019-01-27T05:47:47.065Z,30.63
2019-01-27T05:50:16.578Z,29.77
2019-01-27T05:52:44.892Z,29.33
2019-01-27T05:55:15.755Z,29.27
2019-01-27T05:57:44.176Z,28.50
2019-01-27T06:00:16.811Z,29.60
2019-01-27T06:02:45.153Z,30.57
2019-01-27T06:05:13.676Z,30.07
2019-01-27T06:07:41.991Z,32.37
2019-01-27T06:10:12.421Z,34.53
2019-01-27T06:12:40.863Z,31.23
2019-01-27T06:15:12.452Z,30.97
2019-01-27T06:17:43.091Z,28.20
2019-01-27T06:20:13.722Z,30.20
2019-01-27T06:22:42.527Z,30.80
2019-01-27T06:25:13.075Z,31.17
2019-01-27T06:27:41.347Z,30.80
2019-01-27T06:30:15.508Z,33.70
2019-01-27T06:33:03.438Z,35.63
2019-01-27T06:35:31.803Z,37.63
2019-01-27T06:38:00.077Z,35.43
2019-01-27T06:40:28.345Z,35.33
2019-01-27T06:42:56.667Z,34.43
2019-01-27T06:45:24.945Z,37.87
2019-01-27T06:47:53.239Z,36.17
2019-01-27T06:50:23.278Z,36.37
2019-01-27T06:52:51.562Z,41.67
2019-01-27T06:55:22.264Z,39.47
2019-01-27T06:57:50.562Z,38.67
2019-01-27T07:00:25.648Z,39.93
2019-01-27T07:02:55.604Z,36.50
2019-01-27T07:05:25.517Z,37.70
2019-01-27T07:07:55.525Z,39.27
2019-01-27T07:10:37.421Z,34.53
2019-01-27T07:13:13.076Z,36.03
2019-01-27T07:16:19.043Z,34.00
2019-01-27T07:18:51.687Z,35.40
2019-01-27T07:21:27.333Z,41.23
2019-01-27T07:24:06.168Z,39.83
2019-01-27T07:26:38.618Z,44.23
2019-01-27T07:29:26.630Z,40.53
2019-01-27T07:32:12.510Z,37.17
2019-01-27T07:34:49.341Z,38.50
2019-01-27T07:37:19.448Z,37.00
2019-01-27T07:40:05.507Z,38.07
2019-01-27T07:42:52.693Z,39.43
2019-01-27T07:45:25.331Z,38.00
2019-01-27T07:48:06.966Z,52.17
2019-01-27T07:50:39.449Z,57.53
2019-01-27T07:53:25.619Z,50.57
2019-01-27T07:55:55.521Z,46.80
2019-01-27T07:58:28.138Z,45.83
2019-01-27T08:01:06.979Z,44.97
2019-01-27T08:03:39.599Z,47.17
2019-01-27T08:06:09.537Z,51.40
2019-01-27T08:08:39.467Z,52.20
2019-01-27T08:11:09.376Z,52.37
2019-01-27T08:13:54.586Z,57.93
2019-01-27T08:16:27.210Z,62.60
2019-01-27T08:19:13.474Z,61.07
2019-01-27T08:21:46.330Z,66.03
2019-01-27T08:24:22.198Z,59.90
2019-01-27T08:27:08.375Z,56.97
2019-01-27T08:29:44.433Z,62.83
2019-01-27T08:32:20.308Z,58.43
2019-01-27T08:34:50.242Z,52.90
2019-01-27T08:37:23.250Z,53.50
2019-01-27T08:39:58.872Z,49.37
2019-01-27T08:42:31.382Z,46.03
2019-01-27T08:45:04.076Z,44.50
2019-01-27T08:47:32.443Z,43.63
2019-01-27T08:50:00.852Z,47.23
2019-01-27T08:52:29.150Z,48.73
2019-01-27T08:54:57.434Z,47.50
2019-01-27T08:57:28.701Z,48.83
2019-01-27T08:59:57.006Z,50.53
2019-01-27T09:02:27.841Z,52.67
2019-01-27T09:04:57.760Z,49.70
2019-01-27T09:07:30.420Z,48.57
2019-01-27T09:10:05.999Z,46.43
2019-01-27T09:12:52.256Z,47.47
2019-01-27T09:15:38.334Z,44.70
2019-01-27T09:18:08.285Z,45.87
2019-01-27T09:20:38.207Z,47.30
2019-01-27T09:23:14.009Z,44.03
2019-01-27T09:25:52.920Z,50.10
2019-01-27T09:28:22.861Z,48.63
2019-01-27T09:31:10.999Z,50.63
2019-01-27T09:33:43.368Z,53.03
2019-01-27T09:36:13.284Z,60.57
2019-01-27T09:38:45.861Z,58.37
2019-01-27T09:41:15.935Z,62.63
2019-01-27T09:43:51.576Z,63.67
2019-01-27T09:46:21.539Z,62.00
2019-01-27T09:48:51.445Z,67.27
2019-01-27T09:51:27.910Z,69.17
2019-01-27T09:54:03.698Z,75.60
2019-01-27T09:56:45.489Z,78.27
2019-01-27T09:59:18.235Z,73.57
2019-01-27T10:01:53.688Z,78.47
2019-01-27T10:04:23.608Z,75.23
2019-01-27T10:06:53.524Z,82.83
2019-01-27T10:09:39.749Z,77.80
2019-01-27T10:12:15.634Z,77.33
2019-01-27T10:14:48.109Z,74.70
2019-01-27T10:17:18.035Z,74.37
2019-01-27T10:20:06.477Z,69.73
2019-01-27T10:22:36.389Z,70.03
2019-01-27T10:25:16.010Z,78.43
2019-01-27T10:27:41.466Z,80.10
2019-01-27T10:30:14.803Z,77.73
2019-01-27T10:32:47.669Z,84.97
2019-01-27T10:35:17.604Z,76.83
2019-01-27T10:37:47.626Z,87.70
2019-01-27T10:40:39.815Z,82.77
2019-01-27T10:43:05.582Z,94.03
2019-01-27T10:45:44.043Z,88.63
2019-01-27T10:48:19.472Z,87.90
2019-01-27T10:50:49.478Z,81.20
2019-01-27T10:53:35.699Z,86.73
2019-01-27T10:56:21.747Z,78.70
2019-01-27T10:58:51.740Z,78.80
2019-01-27T11:01:27.568Z,79.63
2019-01-27T11:04:03.433Z,86.33
2019-01-27T11:06:39.105Z,83.77
2019-01-27T11:09:26.681Z,82.80
2019-01-27T11:12:05.398Z,77.67
2019-01-27T11:14:44.769Z,71.53
2019-01-27T11:17:20.496Z,71.60
2019-01-27T11:20:05.433Z,70.53
2019-01-27T11:22:38.153Z,73.97
2019-01-27T11:25:13.249Z,74.67
2019-01-27T11:27:48.671Z,76.30
2019-01-27T11:33:24.317Z,76.43
2019-01-27T11:35:59.226Z,77.10
2019-01-27T11:38:31.780Z,81.90
2019-01-27T11:41:18.020Z,81.30
2019-01-27T11:43:51.375Z,81.27
2019-01-27T11:46:21.365Z,78.80
2019-01-27T11:48:54.059Z,80.50
2019-01-27T11:51:23.959Z,85.77
2019-01-27T11:53:52.239Z,79.27
2019-01-27T11:56:20.556Z,78.47
2019-01-27T11:58:48.835Z,88.23
2019-01-27T12:01:17.118Z,77.40
2019-01-27T12:03:45.442Z,76.63
2019-01-27T12:06:13.785Z,77.17
2019-01-27T12:08:42.091Z,73.33
2019-01-27T12:11:10.402Z,78.57
2019-01-27T12:13:38.695Z,73.83
2019-01-27T12:16:25.071Z,71.53
2019-01-27T12:18:53.368Z,73.83
2019-01-27T12:21:21.648Z,75.20
2019-01-27T12:23:49.974Z,82.70
2019-01-27T12:26:18.331Z,72.20
2019-01-27T12:28:46.606Z,73.33
2019-01-27T12:31:14.928Z,70.07
2019-01-27T12:33:43.281Z,62.40
2019-01-27T12:36:11.564Z,63.23
2019-01-27T12:38:39.939Z,64.83
2019-01-27T12:41:08.228Z,60.80
2019-01-27T12:43:36.512Z,60.37
2019-01-27T12:46:04.837Z,62.43
2019-01-27T12:48:33.188Z,64.10
2019-01-27T12:51:01.502Z,63.60
2019-01-27T12:53:29.823Z,66.47
2019-01-27T12:55:58.106Z,66.17
2019-01-27T12:58:26.391Z,75.53
2019-01-27T13:00:55.943Z,64.77
2019-01-27T13:03:24.214Z,68.87
2019-01-27T13:05:52.491Z,64.20
2019-01-27T13:08:20.789Z,63.77
2019-01-27T13:10:49.069Z,64.43
2019-01-27T13:13:17.357Z,62.47
2019-01-27T13:15:45.669Z,58.87
2019-01-27T13:18:14.075Z,59.63
2019-01-27T13:20:42.503Z,56.07
2019-01-27T13:23:10.813Z,56.53
2019-01-27T13:25:39.093Z,57.90
2019-01-27T13:28:07.360Z,59.80
2019-01-27T13:30:35.768Z,61.17
2019-01-27T13:33:04.094Z,60.50
2019-01-27T13:35:32.382Z,63.90
2019-01-27T13:38:00.713Z,63.80
2019-01-27T13:40:28.987Z,65.93
2019-01-27T13:42:57.281Z,64.87
2019-01-27T13:45:30.636Z,65.83
2019-01-27T13:47:59.306Z,66.60
2019-01-27T13:50:27.762Z,67.40
2019-01-27T13:52:56.484Z,64.90
2019-01-27T13:55:30.455Z,63.90
2019-01-27T13:57:58.729Z,65.83
2019-01-27T14:00:29.515Z,67.27
2019-01-27T14:02:57.787Z,66.47
2019-01-27T14:05:26.086Z,65.33
2019-01-27T14:07:54.457Z,66.10
2019-01-27T14:10:28.128Z,66.57
2019-01-27T14:12:56.485Z,64.90
2019-01-27T14:15:33.139Z,67.70
2019-01-27T14:18:01.533Z,68.03
2019-01-27T14:20:29.884Z,65.60
2019-01-27T14:22:58.201Z,70.87
2019-01-27T14:25:28.845Z,68.03
2019-01-27T14:27:57.350Z,69.30
2019-01-27T14:30:34.741Z,68.57
2019-01-27T14:33:05.361Z,68.17
2019-01-27T14:35:33.689Z,65.17
2019-01-27T14:38:02.005Z,62.97
2019-01-27T14:40:31.149Z,68.57
2019-01-27T14:43:00.826Z,71.10
2019-01-27T14:45:32.238Z,68.17
2019-01-27T14:48:01.233Z,85.40
2019-01-27T14:50:44.272Z,61.87
2019-01-27T14:53:12.576Z,62.03
2019-01-27T14:55:40.854Z,86.27
2019-01-27T14:58:09.163Z,73.07
2019-01-27T15:00:39.989Z,61.50
2019-01-27T15:03:08.595Z,60.40
2019-01-27T15:05:36.987Z,90.57
2019-01-27T15:08:05.912Z,68.00
2019-01-27T15:10:34.351Z,80.87
2019-01-27T15:13:02.719Z,66.77
2019-01-27T15:15:31.945Z,61.73
2019-01-27T15:18:00.236Z,65.23
2019-01-27T15:20:34.472Z,65.30
2019-01-27T15:23:02.768Z,64.13
2019-01-27T15:25:31.050Z,58.83
2019-01-27T15:27:59.354Z,69.33
2019-01-27T15:30:30.645Z,62.43
2019-01-27T15:32:58.983Z,58.20
2019-01-27T15:35:28.954Z,61.37
2019-01-27T15:37:57.287Z,68.30
2019-01-27T15:40:25.553Z,62.70
2019-01-27T15:42:53.877Z,65.33
2019-01-27T15:45:28.251Z,67.90
2019-01-27T15:47:56.599Z,112.73
2019-01-27T15:50:33.871Z,122.17
2019-01-27T15:53:02.145Z,241.50
2019-01-27T15:55:30.418Z,99.77
2019-01-27T15:57:58.739Z,73.70
2019-01-27T16:00:32.087Z,70.20
2019-01-27T16:03:00.389Z,70.87
2019-01-27T16:05:28.697Z,64.23
2019-01-27T16:07:56.964Z,56.17
2019-01-27T16:10:26.371Z,58.23
2019-01-27T16:12:56.346Z,56.47
2019-01-27T16:15:33.584Z,58.50
2019-01-27T16:18:01.900Z,55.77
2019-01-27T16:20:30.533Z,57.37
2019-01-27T16:23:12.226Z,53.37
2019-01-27T16:25:41.513Z,56.47
2019-01-27T16:28:09.977Z,53.47
2019-01-27T16:30:55.818Z,54.57
2019-01-27T16:33:40.858Z,57.13
2019-01-27T16:36:09.174Z,55.30
2019-01-27T16:38:37.443Z,53.43
2019-01-27T16:41:05.900Z,52.27
2019-01-27T16:43:34.281Z,49.93
2019-01-27T16:46:02.677Z,53.93
2019-01-27T16:48:30.937Z,53.90
2019-01-27T16:50:59.246Z,54.03
2019-01-27T16:53:27.511Z,54.07
2019-01-27T16:55:55.847Z,54.60
2019-01-27T16:58:24.274Z,101.67
2019-01-27T17:00:52.587Z,54.63
2019-01-27T17:03:20.866Z,64.37
2019-01-27T17:05:49.179Z,54.03
2019-01-27T17:08:17.458Z,56.53
2019-01-27T17:10:45.764Z,56.17
2019-01-27T17:13:14.034Z,51.93
2019-01-27T17:15:42.484Z,56.33
2019-01-27T17:18:10.757Z,54.40
2019-01-27T17:20:39.063Z,55.47
2019-01-27T17:23:07.402Z,57.17
2019-01-27T17:25:35.685Z,53.50
2019-01-27T17:28:04.004Z,52.50
2019-01-27T17:30:32.413Z,51.53
2019-01-27T17:33:00.689Z,52.83
2019-01-27T17:35:29.009Z,51.37
2019-01-27T17:37:57.398Z,54.60
2019-01-27T17:40:25.672Z,55.43
2019-01-27T17:42:53.976Z,59.63
2019-01-27T17:45:27.790Z,66.10
2019-01-27T17:47:56.049Z,53.43
2019-01-27T17:50:25.013Z,52.70
2019-01-27T17:52:53.353Z,56.27
2019-01-27T17:55:39.534Z,50.40
2019-01-27T17:58:37.568Z,56.77
2019-01-27T18:01:07.610Z,48.23
2019-01-27T18:03:43.414Z,44.40
2019-01-27T18:06:15.831Z,45.80
2019-01-27T18:08:45.747Z,44.17
2019-01-27T18:11:21.738Z,43.40
2019-01-27T18:13:50.970Z,43.87
2019-01-27T18:16:19.240Z,45.10
2019-01-27T18:18:49.290Z,48.77
2019-01-27T18:21:17.556Z,49.60
2019-01-27T18:23:45.834Z,52.07
2019-01-27T18:26:14.208Z,49.87
2019-01-27T18:28:43.212Z,51.37
2019-01-27T18:31:11.495Z,50.70
2019-01-27T18:33:39.782Z,53.90
2019-01-27T18:36:08.064Z,49.90
2019-01-27T18:38:36.353Z,49.63
2019-01-27T18:41:04.816Z,49.63
2019-01-27T18:43:33.110Z,49.33
2019-01-27T18:46:01.404Z,53.40
2019-01-27T18:48:29.682Z,51.03
2019-01-27T18:50:57.965Z,88.70
2019-01-27T18:53:33.819Z,61.40
2019-01-27T18:56:09.631Z,52.07
2019-01-27T18:58:55.541Z,50.60
2019-01-27T19:01:25.502Z,54.90
2019-01-27T19:03:55.517Z,49.23
2019-01-27T19:06:28.243Z,51.27
2019-01-27T19:09:00.794Z,48.67
2019-01-27T19:11:42.792Z,49.97
2019-01-27T19:14:24.479Z,50.13
2019-01-27T19:17:10.687Z,51.70
2019-01-27T19:19:58.598Z,49.00
2019-01-27T19:22:34.176Z,48.13
2019-01-27T19:25:16.014Z,50.37
2019-01-27T19:27:54.909Z,48.37
2019-01-27T19:30:30.718Z,44.83
2019-01-27T19:33:15.813Z,43.17
2019-01-27T19:35:57.607Z,43.07
2019-01-27T19:38:27.525Z,41.10
2019-01-27T19:41:02.975Z,39.33
2019-01-27T19:43:32.878Z,41.07
2019-01-27T19:46:08.759Z,38.77
2019-01-27T19:48:54.695Z,39.23
2019-01-27T19:51:30.272Z,37.93
2019-01-27T19:54:03.042Z,38.90
2019-01-27T19:56:32.959Z,38.70
2019-01-27T19:59:19.227Z,40.40
2019-01-27T20:04:48.888Z,40.33
2019-01-27T20:07:18.823Z,41.20
2019-01-27T20:09:57.548Z,40.60
2019-01-27T20:12:39.551Z,39.33
2019-01-27T20:15:12.772Z,39.40
2019-01-27T20:17:42.725Z,40.57
2019-01-27T20:20:15.536Z,39.10
2019-01-27T20:22:51.114Z,39.80
2019-01-27T20:25:37.389Z,40.93
2019-01-27T20:28:23.230Z,41.27
2019-01-27T20:30:58.997Z,40.63
2019-01-27T20:33:31.715Z,40.10
2019-01-27T20:36:01.632Z,41.30
2019-01-27T20:38:31.763Z,40.93
2019-01-27T20:41:07.828Z,42.13
2019-01-27T20:43:37.753Z,39.60
2019-01-27T20:46:07.763Z,43.03
2019-01-27T20:48:54.015Z,44.30
2019-01-27T20:51:41.984Z,48.87
2019-01-27T20:54:26.729Z,50.60
2019-01-27T20:56:56.787Z,63.23
2019-01-27T20:59:26.716Z,67.07
2019-01-27T21:02:13.285Z,54.33
2019-01-27T21:04:45.971Z,54.33
2019-01-27T21:07:18.809Z,54.20
2019-01-27T21:09:54.325Z,55.37
2019-01-27T21:12:26.749Z,53.60
2019-01-27T21:14:59.217Z,56.50
2019-01-27T21:17:29.140Z,54.27
2019-01-27T21:19:57.622Z,56.53
2019-01-27T21:22:25.895Z,54.77
2019-01-27T21:24:57.435Z,53.27
2019-01-27T21:27:25.774Z,56.23
2019-01-27T21:29:54.162Z,59.37
2019-01-27T21:32:24.242Z,51.17
2019-01-27T21:34:52.560Z,54.33
2019-01-27T21:37:22.472Z,49.87
2019-01-27T21:39:50.750Z,51.23
2019-01-27T21:42:20.793Z,50.50
2019-01-27T21:44:49.257Z,51.13
2019-01-27T21:47:17.573Z,51.77
2019-01-27T21:49:47.532Z,50.73
2019-01-27T21:52:17.111Z,47.33
2019-01-27T21:54:47.085Z,48.70
2019-01-27T21:57:15.648Z,49.03
2019-01-27T21:59:44.068Z,46.00
2019-01-27T22:02:12.342Z,46.93
2019-01-27T22:04:40.681Z,46.87
2019-01-27T22:07:12.189Z,49.13
2019-01-27T22:09:40.543Z,48.10
2019-01-27T22:12:08.853Z,43.97
2019-01-27T22:14:39.648Z,51.07
2019-01-27T22:17:10.486Z,48.37
2019-01-27T22:19:40.445Z,45.90
2019-01-27T22:22:10.406Z,47.13
2019-01-27T22:24:38.685Z,43.73
2019-01-27T22:27:07.007Z,46.27
2019-01-27T22:29:37.313Z,42.93
2019-01-27T22:32:07.238Z,44.63
2019-01-27T22:34:37.173Z,42.37
2019-01-27T22:37:05.733Z,42.93
2019-01-27T22:39:37.853Z,41.90
2019-01-27T22:42:08.204Z,40.93
2019-01-27T22:44:36.487Z,39.37
2019-01-27T22:47:04.751Z,39.83
2019-01-27T22:49:33.098Z,39.57
2019-01-27T22:52:01.366Z,39.00
2019-01-27T22:54:29.644Z,40.00
2019-01-27T22:56:57.961Z,40.30
2019-01-27T22:59:26.265Z,38.50
2019-01-27T23:01:54.531Z,41.30
2019-01-27T23:04:22.869Z,38.97
2019-01-27T23:06:51.155Z,39.57
2019-01-27T23:09:20.203Z,40.37
2019-01-27T23:11:48.521Z,38.33
2019-01-27T23:14:16.786Z,39.37
2019-01-27T23:16:45.060Z,40.07
2019-01-27T23:19:13.591Z,40.70
2019-01-27T23:21:41.872Z,38.53
2019-01-27T23:24:10.146Z,40.27
2019-01-27T23:26:38.455Z,38.83
2019-01-27T23:29:06.732Z,37.37
2019-01-27T23:31:35.068Z,37.43
2019-01-27T23:34:03.458Z,37.00
2019-01-27T23:36:31.741Z,37.30
2019-01-27T23:39:00.072Z,36.30
2019-01-27T23:41:28.404Z,36.93
2019-01-27T23:43:56.684Z,35.67
2019-01-27T23:46:25.030Z,35.83
2019-01-27T23:48:53.443Z,34.73
2019-01-27T23:51:21.723Z,34.77
2019-01-27T23:53:50.024Z,34.20
2019-01-27T23:56:18.360Z,33.13
2019-01-27T23:58:46.647Z,33.90
